createdAt,value
2023-01-08T00:00:29.778Z,71.89
2023-01-08T00:03:22.995Z,71.84
2023-01-08T00:05:56.476Z,71.87
2023-01-08T00:08:29.242Z,72.07
2023-01-08T00:11:03.155Z,72.12
2023-01-08T00:13:36.286Z,72.23
2023-01-08T00:16:15.518Z,72.09
2023-01-08T00:18:49.590Z,71.90
2023-01-08T00:21:22.521Z,71.90
2023-01-08T00:23:55.531Z,72.36
2023-01-08T00:26:29.155Z,72.04
2023-01-08T00:29:02.679Z,72.03
2023-01-08T00:31:35.702Z,71.94
2023-01-08T00:34:08.812Z,71.88
2023-01-08T00:36:41.752Z,72.23
2023-01-08T00:39:15.087Z,72.34
2023-01-08T00:41:50.188Z,72.62
2023-01-08T00:44:23.489Z,72.60
2023-01-08T00:46:56.733Z,72.71
2023-01-08T00:49:29.976Z,72.70
2023-01-08T00:52:03.277Z,72.69
2023-01-08T00:54:36.522Z,72.61
2023-01-08T00:57:09.559Z,72.69
2023-01-08T00:59:43.011Z,72.62
2023-01-08T01:02:16.212Z,72.55
2023-01-08T01:04:49.821Z,72.68
2023-01-08T01:07:22.723Z,72.57
2023-01-08T01:09:55.883Z,72.18
2023-01-08T01:12:28.900Z,72.12
2023-01-08T01:15:02.132Z,72.27
2023-01-08T01:17:35.681Z,72.42
2023-01-08T01:20:10.734Z,72.45
2023-01-08T01:22:44.108Z,72.64
2023-01-08T01:25:17.572Z,72.19
2023-01-08T01:27:50.847Z,72.48
2023-01-08T01:30:24.257Z,74.64
2023-01-08T01:32:57.436Z,75.35
2023-01-08T01:35:30.695Z,75.17
2023-01-08T01:38:03.881Z,77.14
2023-01-08T01:40:36.841Z,76.05
2023-01-08T01:43:14.142Z,75.44
2023-01-08T01:45:47.109Z,75.24
2023-01-08T01:48:20.063Z,76.25
2023-01-08T01:50:55.087Z,75.49
2023-01-08T01:53:33.225Z,74.83
2023-01-08T01:56:07.822Z,74.82
2023-01-08T01:58:41.083Z,75.15
2023-01-08T02:01:14.740Z,74.59
2023-01-08T02:03:47.698Z,74.83
2023-01-08T02:06:37.739Z,75.12
2023-01-08T02:09:43.945Z,74.94
2023-01-08T02:12:30.608Z,74.74
2023-01-08T02:15:22.842Z,74.51
2023-01-08T02:18:09.411Z,74.20
2023-01-08T02:20:48.397Z,74.22
2023-01-08T02:23:51.011Z,74.12
2023-01-08T02:26:37.888Z,74.00
2023-01-08T02:29:21.127Z,74.02
2023-01-08T02:31:54.267Z,74.10
2023-01-08T02:34:28.028Z,73.91
2023-01-08T02:37:02.417Z,73.86
2023-01-08T02:40:12.805Z,73.85
2023-01-08T02:43:18.413Z,73.88
2023-01-08T02:46:01.482Z,74.03
2023-01-08T02:49:00.773Z,73.92
2023-01-08T02:51:43.318Z,73.86
2023-01-08T02:54:27.753Z,73.81
2023-01-08T02:57:10.836Z,73.67
2023-01-08T02:59:45.758Z,73.60
2023-01-08T03:02:19.632Z,73.66
2023-01-08T03:05:04.063Z,73.78
2023-01-08T03:07:37.689Z,73.78
2023-01-08T03:10:11.569Z,73.80
2023-01-08T03:12:57.414Z,73.84
2023-01-08T03:15:45.179Z,73.61
2023-01-08T03:18:22.460Z,73.60
2023-01-08T03:20:55.910Z,73.53
2023-01-08T03:23:30.829Z,73.47
2023-01-08T03:26:05.739Z,73.43
2023-01-08T03:28:43.851Z,73.25
2023-01-08T03:31:19.462Z,73.22
2023-01-08T03:33:53.308Z,73.13
2023-01-08T03:36:30.970Z,72.92
2023-01-08T03:39:13.399Z,72.85
2023-01-08T03:41:46.547Z,72.85
2023-01-08T03:44:19.899Z,73.05
2023-01-08T03:46:56.398Z,73.01
2023-01-08T03:49:31.526Z,73.23
2023-01-08T03:52:04.169Z,73.15
2023-01-08T03:54:38.756Z,73.17
2023-01-08T03:57:11.387Z,73.08
2023-01-08T03:59:44.589Z,73.11
2023-01-08T04:02:17.996Z,73.08
2023-01-08T04:04:51.232Z,72.73
2023-01-08T04:07:24.439Z,72.83
2023-01-08T04:09:57.484Z,72.88
2023-01-08T04:12:30.520Z,72.83
2023-01-08T04:15:03.678Z,72.94
2023-01-08T04:17:36.427Z,72.91
2023-01-08T04:20:10.618Z,73.37
2023-01-08T04:22:43.679Z,74.47
2023-01-08T04:25:17.258Z,73.67
2023-01-08T04:27:50.703Z,73.56
2023-01-08T04:30:24.257Z,73.81
2023-01-08T04:32:56.961Z,74.07
2023-01-08T04:35:29.920Z,74.26
2023-01-08T04:38:02.893Z,73.97
2023-01-08T04:40:38.852Z,74.11
2023-01-08T04:43:11.911Z,74.22
2023-01-08T04:45:44.942Z,74.25
2023-01-08T04:48:18.054Z,73.97
2023-01-08T04:50:51.684Z,73.63
2023-01-08T04:53:25.064Z,73.77
2023-01-08T04:55:57.907Z,73.63
2023-01-08T04:58:30.901Z,74.36
2023-01-08T05:01:11.496Z,74.46
2023-01-08T05:03:44.364Z,74.04
2023-01-08T05:06:17.406Z,73.78
2023-01-08T05:08:50.509Z,73.43
2023-01-08T05:11:23.602Z,73.96
2023-01-08T05:13:57.257Z,74.49
2023-01-08T05:16:30.198Z,74.53
2023-01-08T05:19:03.123Z,74.21
2023-01-08T05:21:36.481Z,74.71
2023-01-08T05:24:10.479Z,75.26
2023-01-08T05:26:43.512Z,74.75
2023-01-08T05:29:16.973Z,74.52
2023-01-08T05:31:49.868Z,74.53
2023-01-08T05:34:22.585Z,74.83
2023-01-08T05:36:55.780Z,75.11
2023-01-08T05:39:28.675Z,74.39
2023-01-08T05:42:01.686Z,74.28
2023-01-08T05:44:34.348Z,75.23
2023-01-08T05:47:07.461Z,77.12
2023-01-08T05:49:40.279Z,78.44
2023-01-08T05:52:13.546Z,78.13
2023-01-08T05:54:46.352Z,76.97
2023-01-08T05:57:19.534Z,77.28
2023-01-08T05:59:52.217Z,76.02
2023-01-08T06:02:25.365Z,76.08
2023-01-08T06:04:58.337Z,76.47
2023-01-08T06:07:34.290Z,76.18
2023-01-08T06:10:07.468Z,75.91
2023-01-08T06:12:40.345Z,75.99
2023-01-08T06:15:13.833Z,76.62
2023-01-08T06:17:47.433Z,75.81
2023-01-08T06:20:20.274Z,75.71
2023-01-08T06:22:55.241Z,75.53
2023-01-08T06:25:28.781Z,76.31
2023-01-08T06:28:01.510Z,76.01
2023-01-08T06:30:34.565Z,75.77
2023-01-08T06:33:07.271Z,76.00
2023-01-08T06:35:39.938Z,76.15
2023-01-08T06:38:13.016Z,76.64
2023-01-08T06:40:45.631Z,76.46
2023-01-08T06:43:19.091Z,75.96
2023-01-08T06:46:02.822Z,75.21
2023-01-08T06:48:35.693Z,75.30
2023-01-08T06:51:08.971Z,76.23
2023-01-08T06:53:41.787Z,76.30
2023-01-08T06:56:14.875Z,76.26
2023-01-08T06:58:47.874Z,76.52
2023-01-08T07:01:23.480Z,76.41
2023-01-08T07:03:57.289Z,77.21
2023-01-08T07:06:29.718Z,76.93
2023-01-08T07:09:02.248Z,76.87
2023-01-08T07:11:35.652Z,76.68
2023-01-08T07:14:08.585Z,76.32
2023-01-08T07:16:41.291Z,76.15
2023-01-08T07:19:14.291Z,76.98
2023-01-08T07:21:47.242Z,77.99
2023-01-08T07:24:20.207Z,77.93
2023-01-08T07:26:53.313Z,77.63
2023-01-08T07:29:26.031Z,76.87
2023-01-08T07:31:59.002Z,77.06
2023-01-08T07:34:31.777Z,76.78
2023-01-08T07:37:04.997Z,76.39
2023-01-08T07:39:37.643Z,77.66
2023-01-08T07:42:10.647Z,76.88
2023-01-08T07:44:43.568Z,76.87
2023-01-08T07:47:16.215Z,78.29
2023-01-08T07:49:48.753Z,77.58
2023-01-08T07:52:21.329Z,78.19
2023-01-08T07:54:54.009Z,78.03
2023-01-08T07:57:26.593Z,77.49
2023-01-08T07:59:59.749Z,77.21
2023-01-08T08:02:33.404Z,77.35
2023-01-08T08:05:07.256Z,77.16
2023-01-08T08:07:39.939Z,77.63
2023-01-08T08:10:13.384Z,78.01
2023-01-08T08:12:47.636Z,78.38
2023-01-08T08:15:20.570Z,78.01
2023-01-08T08:17:53.522Z,77.74
2023-01-08T08:20:26.960Z,77.40
2023-01-08T08:23:10.250Z,78.55
2023-01-08T08:25:43.924Z,79.27
2023-01-08T08:28:16.648Z,80.13
2023-01-08T08:30:49.653Z,81.41
2023-01-08T08:33:22.569Z,81.47
2023-01-08T08:35:55.489Z,80.34
2023-01-08T08:38:28.550Z,80.31
2023-01-08T08:41:01.747Z,81.35
2023-01-08T08:43:35.084Z,81.39
2023-01-08T08:46:08.241Z,80.54
2023-01-08T08:48:41.455Z,80.93
2023-01-08T08:51:14.760Z,82.36
2023-01-08T08:53:47.709Z,82.07
2023-01-08T08:56:20.662Z,80.97
2023-01-08T08:58:53.603Z,81.76
2023-01-08T09:01:26.657Z,82.59
2023-01-08T09:03:59.822Z,81.98
2023-01-08T09:06:32.688Z,81.21
2023-01-08T09:09:05.531Z,82.44
2023-01-08T09:11:38.474Z,82.03
2023-01-08T09:14:11.590Z,81.72
2023-01-08T09:16:44.948Z,80.71
2023-01-08T09:19:17.891Z,80.56
2023-01-08T09:21:51.515Z,81.34
2023-01-08T09:24:24.328Z,81.76
2023-01-08T09:26:57.689Z,81.98
2023-01-08T09:29:30.464Z,81.26
2023-01-08T09:32:03.465Z,82.43
2023-01-08T09:34:38.686Z,82.16
2023-01-08T09:37:11.299Z,81.89
2023-01-08T09:39:48.109Z,82.20
2023-01-08T09:42:29.901Z,80.76
2023-01-08T09:45:05.052Z,81.05
2023-01-08T09:47:44.915Z,83.23
2023-01-08T09:50:17.689Z,82.17
2023-01-08T09:52:50.381Z,82.05
2023-01-08T09:55:24.158Z,81.85
2023-01-08T09:57:57.812Z,82.06
2023-01-08T10:00:33.901Z,81.85
2023-01-08T10:03:08.043Z,81.99
2023-01-08T10:05:42.437Z,81.99
2023-01-08T10:08:17.076Z,80.91
2023-01-08T10:10:50.434Z,80.91
2023-01-08T10:13:23.410Z,80.59
2023-01-08T10:15:56.369Z,81.11
2023-01-08T10:18:30.839Z,80.89
2023-01-08T10:21:03.803Z,80.69
2023-01-08T10:23:37.004Z,80.97
2023-01-08T10:26:10.119Z,80.95
2023-01-08T10:28:44.014Z,81.05
2023-01-08T10:31:18.905Z,80.19
2023-01-08T10:33:52.378Z,80.40
2023-01-08T10:36:28.372Z,79.62
2023-01-08T10:39:04.717Z,80.04
2023-01-08T10:41:44.021Z,80.11
2023-01-08T10:44:21.126Z,79.54
2023-01-08T10:47:00.116Z,79.30
2023-01-08T10:49:46.074Z,79.16
2023-01-08T10:52:30.157Z,79.16
2023-01-08T10:55:29.132Z,78.93
2023-01-08T10:58:12.352Z,78.51
2023-01-08T11:00:45.934Z,78.14
2023-01-08T11:03:31.105Z,77.74
2023-01-08T11:06:14.981Z,77.58
2023-01-08T11:09:02.775Z,78.10
2023-01-08T11:11:40.212Z,77.66
2023-01-08T11:14:19.973Z,76.96
2023-01-08T11:16:53.594Z,77.29
2023-01-08T11:19:35.053Z,77.43
2023-01-08T11:22:22.833Z,77.25
2023-01-08T11:24:56.780Z,77.31
2023-01-08T11:27:42.827Z,77.28
2023-01-08T11:30:20.112Z,77.19
2023-01-08T11:33:19.240Z,77.37
2023-01-08T11:35:56.468Z,77.52
2023-01-08T11:38:30.491Z,77.47
2023-01-08T11:41:17.340Z,76.87
2023-01-08T11:44:24.164Z,76.49
2023-01-08T11:47:16.636Z,76.43
2023-01-08T11:50:34.909Z,76.52
2023-01-08T11:53:30.521Z,76.46
2023-01-08T11:56:38.844Z,76.31
2023-01-08T11:59:25.000Z,76.08
2023-01-08T12:02:11.565Z,75.79
2023-01-08T12:05:14.576Z,76.30
2023-01-08T12:08:11.596Z,76.78
2023-01-08T12:10:58.837Z,77.24
2023-01-08T12:13:58.877Z,78.15
2023-01-08T12:17:04.651Z,78.23
2023-01-08T12:20:18.910Z,78.00
2023-01-08T12:23:22.263Z,78.01
2023-01-08T12:26:11.494Z,77.43
2023-01-08T12:28:55.790Z,78.04
2023-01-08T12:31:57.639Z,78.58
2023-01-08T12:34:50.987Z,78.31
2023-01-08T12:37:44.867Z,78.08
2023-01-08T12:40:42.809Z,78.53
2023-01-08T12:43:50.395Z,78.49
2023-01-08T12:46:24.746Z,78.07
2023-01-08T12:48:58.911Z,78.01
2023-01-08T12:51:58.387Z,77.93
2023-01-08T12:54:54.473Z,77.67
2023-01-08T12:58:05.055Z,77.27
2023-01-08T13:00:52.460Z,77.21
2023-01-08T13:03:29.372Z,77.47
2023-01-08T13:06:17.475Z,77.25
2023-01-08T13:08:57.979Z,77.08
2023-01-08T13:11:42.636Z,77.13
2023-01-08T13:14:15.822Z,77.03
2023-01-08T13:17:02.985Z,77.12
2023-01-08T13:19:46.641Z,77.37
2023-01-08T13:22:33.656Z,77.46
2023-01-08T13:25:16.002Z,77.36
2023-01-08T13:27:49.694Z,77.08
2023-01-08T13:30:46.920Z,77.17
2023-01-08T13:33:41.890Z,76.97
2023-01-08T13:36:21.966Z,76.79
2023-01-08T13:39:24.888Z,76.60
2023-01-08T13:42:03.920Z,76.42
2023-01-08T13:44:57.453Z,76.33
2023-01-08T13:47:46.960Z,76.40
2023-01-08T13:50:31.116Z,76.74
2023-01-08T13:53:07.755Z,76.44
2023-01-08T13:55:49.404Z,76.78
2023-01-08T13:58:42.564Z,77.32
2023-01-08T14:01:16.209Z,76.77
2023-01-08T14:03:50.284Z,77.12
2023-01-08T14:06:26.394Z,77.52
2023-01-08T14:09:03.590Z,77.11
2023-01-08T14:11:47.082Z,77.44
2023-01-08T14:14:22.857Z,77.76
2023-01-08T14:16:57.528Z,77.75
2023-01-08T14:19:30.893Z,78.03
2023-01-08T14:22:04.223Z,78.64
2023-01-08T14:24:37.624Z,78.09
2023-01-08T14:27:24.848Z,77.96
2023-01-08T14:29:58.945Z,77.75
2023-01-08T14:32:33.119Z,77.08
2023-01-08T14:35:06.722Z,76.39
2023-01-08T14:37:39.869Z,77.84
2023-01-08T14:40:30.495Z,77.90
2023-01-08T14:43:09.856Z,77.44
2023-01-08T14:45:49.902Z,77.63
2023-01-08T14:48:41.374Z,77.65
2023-01-08T14:51:18.066Z,77.46
2023-01-08T14:54:09.948Z,77.30
2023-01-08T14:56:42.750Z,77.52
2023-01-08T14:59:21.618Z,77.27
2023-01-08T15:02:03.492Z,77.72
2023-01-08T15:04:36.540Z,77.75
2023-01-08T15:07:24.648Z,77.57
2023-01-08T15:10:01.955Z,77.40
2023-01-08T15:12:34.766Z,77.85
2023-01-08T15:15:26.719Z,77.44
2023-01-08T15:17:59.651Z,77.18
2023-01-08T15:20:35.998Z,77.46
2023-01-08T15:23:19.670Z,77.24
2023-01-08T15:25:53.099Z,77.23
2023-01-08T15:28:28.016Z,77.01
2023-01-08T15:31:01.791Z,77.20
2023-01-08T15:33:34.478Z,77.54
2023-01-08T15:36:08.069Z,77.19
2023-01-08T15:38:42.484Z,76.68
2023-01-08T15:41:39.968Z,77.23
2023-01-08T15:44:16.315Z,76.86
2023-01-08T15:46:49.426Z,77.48
2023-01-08T15:49:22.443Z,77.83
2023-01-08T15:51:55.544Z,78.11
2023-01-08T15:54:29.276Z,78.60
2023-01-08T15:57:02.289Z,78.60
2023-01-08T15:59:37.971Z,78.13
2023-01-08T16:02:16.434Z,78.14
2023-01-08T16:04:54.657Z,78.05
2023-01-08T16:07:27.810Z,77.81
2023-01-08T16:10:01.036Z,77.84
2023-01-08T16:12:34.481Z,77.80
2023-01-08T16:15:10.641Z,77.60
2023-01-08T16:17:44.275Z,77.46
2023-01-08T16:20:18.564Z,77.00
2023-01-08T16:22:51.955Z,76.95
2023-01-08T16:25:25.272Z,76.81
2023-01-08T16:27:57.962Z,76.65
2023-01-08T16:30:31.244Z,76.85
2023-01-08T16:33:04.184Z,76.55
2023-01-08T16:35:37.079Z,76.35
2023-01-08T16:38:11.327Z,76.13
2023-01-08T16:40:44.467Z,76.28
2023-01-08T16:43:17.860Z,76.54
2023-01-08T16:45:51.656Z,76.69
2023-01-08T16:48:25.607Z,76.61
2023-01-08T16:51:06.286Z,76.83
2023-01-08T16:53:39.478Z,76.79
2023-01-08T16:56:12.885Z,76.86
2023-01-08T16:58:45.701Z,76.96
2023-01-08T17:01:18.860Z,76.68
2023-01-08T17:03:52.543Z,76.66
2023-01-08T17:06:25.512Z,76.43
2023-01-08T17:09:00.606Z,76.21
2023-01-08T17:11:34.033Z,76.28
2023-01-08T17:14:07.468Z,75.98
2023-01-08T17:16:45.926Z,76.19
2023-01-08T17:19:19.272Z,76.24
2023-01-08T17:21:53.075Z,76.21
2023-01-08T17:24:25.778Z,76.43
2023-01-08T17:27:00.419Z,76.78
2023-01-08T17:29:34.131Z,76.64
2023-01-08T17:32:07.718Z,76.99
2023-01-08T17:34:41.889Z,76.90
2023-01-08T17:37:15.442Z,77.02
2023-01-08T17:39:49.914Z,77.05
2023-01-08T17:42:29.417Z,76.79
2023-01-08T17:45:06.589Z,76.64
2023-01-08T17:47:39.796Z,76.51
2023-01-08T17:50:14.625Z,76.71
2023-01-08T17:52:47.547Z,76.93
2023-01-08T17:55:20.448Z,77.38
2023-01-08T17:57:53.785Z,77.00
2023-01-08T18:00:31.315Z,76.87
2023-01-08T18:03:05.036Z,76.52
2023-01-08T18:05:38.273Z,76.85
2023-01-08T18:08:11.099Z,77.39
2023-01-08T18:10:43.798Z,77.21
2023-01-08T18:13:16.893Z,77.17
2023-01-08T18:15:49.629Z,77.05
2023-01-08T18:18:22.690Z,76.56
2023-01-08T18:20:56.202Z,76.74
2023-01-08T18:23:29.181Z,77.78
2023-01-08T18:26:10.304Z,77.25
2023-01-08T18:28:45.501Z,76.63
2023-01-08T18:31:18.371Z,76.47
2023-01-08T18:33:54.780Z,77.19
2023-01-08T18:36:27.421Z,76.82
2023-01-08T18:39:00.667Z,77.06
2023-01-08T18:41:52.238Z,76.96
2023-01-08T18:44:25.635Z,76.96
2023-01-08T18:46:59.089Z,77.36
2023-01-08T18:49:32.297Z,77.77
2023-01-08T18:52:05.559Z,77.27
2023-01-08T18:54:38.203Z,77.03
2023-01-08T18:57:11.061Z,77.07
2023-01-08T18:59:43.941Z,77.55
2023-01-08T19:02:25.024Z,77.32
2023-01-08T19:04:58.134Z,77.11
2023-01-08T19:07:31.321Z,77.42
2023-01-08T19:10:04.208Z,77.53
2023-01-08T19:12:37.299Z,77.50
2023-01-08T19:15:10.593Z,77.20
2023-01-08T19:17:43.534Z,78.45
2023-01-08T19:20:16.512Z,78.45
2023-01-08T19:22:49.513Z,78.40
2023-01-08T19:25:22.577Z,78.42
2023-01-08T19:27:55.512Z,78.33
2023-01-08T19:30:29.150Z,77.77
2023-01-08T19:33:02.324Z,78.17
2023-01-08T19:35:39.482Z,78.41
2023-01-08T19:38:12.288Z,78.05
2023-01-08T19:40:45.439Z,77.60
2023-01-08T19:43:36.365Z,77.30
2023-01-08T19:46:10.088Z,77.39
2023-01-08T19:48:44.573Z,77.71
2023-01-08T19:51:17.605Z,77.58
2023-01-08T19:53:50.420Z,77.87
2023-01-08T19:56:23.320Z,77.81
2023-01-08T19:58:57.140Z,77.43
2023-01-08T20:01:30.990Z,77.77
2023-01-08T20:04:04.854Z,77.65
2023-01-08T20:06:38.154Z,78.13
2023-01-08T20:09:11.615Z,78.40
2023-01-08T20:11:44.412Z,78.04
2023-01-08T20:15:23.499Z,77.79
2023-01-08T20:17:56.234Z,77.75
2023-01-08T20:20:29.478Z,78.59
2023-01-08T20:23:02.420Z,77.73
2023-01-08T20:25:37.098Z,78.16
2023-01-08T20:28:10.392Z,77.86
2023-01-08T20:30:43.558Z,77.89
2023-01-08T20:33:17.832Z,79.00
2023-01-08T20:35:52.960Z,79.87
2023-01-08T20:38:26.233Z,79.38
2023-01-08T20:40:59.220Z,78.71
2023-01-08T20:43:32.891Z,78.80
2023-01-08T20:46:07.066Z,78.57
2023-01-08T20:48:46.984Z,79.85
2023-01-08T20:51:22.036Z,79.40
2023-01-08T20:53:55.189Z,78.90
2023-01-08T20:56:28.129Z,78.53
2023-01-08T20:59:03.342Z,78.11
2023-01-08T21:01:36.969Z,78.08
2023-01-08T21:04:11.226Z,78.78
2023-01-08T21:06:44.491Z,78.21
2023-01-08T21:09:18.399Z,78.40
2023-01-08T21:11:51.514Z,80.02
2023-01-08T21:14:24.594Z,79.43
2023-01-08T21:16:57.634Z,79.51
2023-01-08T21:19:30.463Z,79.01
2023-01-08T21:22:03.018Z,78.60
2023-01-08T21:24:35.738Z,78.74
2023-01-08T21:27:08.783Z,80.96
2023-01-08T21:29:41.827Z,81.03
2023-01-08T21:32:14.831Z,80.91
2023-01-08T21:34:48.198Z,80.73
2023-01-08T21:37:21.891Z,80.66
2023-01-08T21:39:54.833Z,80.66
2023-01-08T21:42:46.456Z,79.76
2023-01-08T21:45:30.153Z,80.44
2023-01-08T21:48:03.193Z,81.06
2023-01-08T21:50:36.168Z,80.69
2023-01-08T21:53:27.475Z,80.64
2023-01-08T21:56:04.114Z,80.43
2023-01-08T21:58:36.897Z,80.80
2023-01-08T22:01:12.448Z,80.50
2023-01-08T22:03:45.675Z,80.68
2023-01-08T22:06:18.928Z,80.04
2023-01-08T22:08:57.058Z,79.81
2023-01-08T22:11:29.865Z,79.67
2023-01-08T22:14:02.680Z,79.81
2023-01-08T22:16:35.594Z,79.87
2023-01-08T22:19:09.027Z,79.89
2023-01-08T22:21:42.814Z,80.42
2023-01-08T22:24:15.794Z,79.82
2023-01-08T22:26:51.022Z,80.61
2023-01-08T22:29:23.824Z,80.63
2023-01-08T22:31:56.753Z,80.77
2023-01-08T22:34:32.493Z,80.46
2023-01-08T22:37:05.696Z,80.41
2023-01-08T22:39:38.620Z,80.31
2023-01-08T22:42:11.818Z,80.37
2023-01-08T22:44:44.707Z,81.07
2023-01-08T22:47:17.909Z,80.73
2023-01-08T22:49:51.580Z,80.45
2023-01-08T22:52:24.886Z,80.78
2023-01-08T22:54:58.495Z,80.91
2023-01-08T22:57:31.037Z,81.57
2023-01-08T23:00:04.800Z,82.01
2023-01-08T23:02:38.815Z,82.28
2023-01-08T23:05:11.797Z,82.75
2023-01-08T23:07:44.879Z,81.79
2023-01-08T23:10:17.689Z,81.34
2023-01-08T23:12:51.501Z,80.68
2023-01-08T23:15:24.999Z,80.88
2023-01-08T23:17:58.096Z,82.16
2023-01-08T23:20:31.037Z,83.39
2023-01-08T23:23:03.901Z,83.25
2023-01-08T23:25:37.203Z,82.61
2023-01-08T23:28:10.424Z,82.69
2023-01-08T23:30:43.957Z,82.56
2023-01-08T23:33:16.978Z,81.89
2023-01-08T23:35:49.777Z,82.57
2023-01-08T23:38:22.722Z,82.32
2023-01-08T23:40:55.503Z,81.60
2023-01-08T23:43:28.539Z,81.78
2023-01-08T23:46:05.428Z,81.88
2023-01-08T23:48:38.590Z,81.01
2023-01-08T23:51:11.490Z,81.37
2023-01-08T23:53:44.567Z,82.42
2023-01-08T23:56:17.543Z,82.83
2023-01-08T23:58:51.291Z,82.34
